Chattanooga, Tennessee
Current Conditions -  °F | °C
As of 12:53 PM on Thursday 30 Oct 2014 (Local Time) from KCHA Reporting Station
Clear Clear  
Wind Chill: 60°   Ceiling: Unl
Heat Index: 60°   Visibility: 10mi
Dew Point: 37°   Wind: 0mph
Humidity: 42%   Direction: NA
Pressure: 30.1"   Gusts: NA
Location:  35.05°N, 85.31°W
Report Text: KCHA 301653Z 00000KT 10SM CLR 16/03 A3010 RMK AO2 SLP192 T01560028
Loading
Personal Weather Stations






























Interactive Weather Map New forecast layout! Learn more

10-Day Weather Forecast

Advertisements
Track Severe Weather on mobile